CA-0461 weather

Brougham (High Perspective Hang Glider Port)
Ontario, Canada

Public forecast

Using degrees Celsius for public forecast. Weather courtesy of forecast.io.

METAR (pilot weather report)

Closest report is Toronto/Oshawa Executive Airport, 10.3 nm (19.2 km) E. Retrieved 2019/05/22 14:33 UTC (0 seconds ago):

CYOO 221433Z AUTO 09016G21KT 9SM FEW140 BKN170 15/04 A3024 RMK PRESFR SLP244

TAF (pilot weather forecast)

Closest forecast is Toronto/Oshawa Executive Airport, 10.3 nm (19.2 km) E. Retrieved 2019/05/22 14:00 UTC (24 minutes ago):

TAF CYOO 221338Z 2214/2302 10015KT P6SM BKN160 BECMG 2215/2217 10012G22KT FM221800 10010G20KT P6SM BKN100 FM222200 09008KT P6SM OVC050 TEMPO 2222/2301 P6SM -SHRA RMK FCST BASED ON AUTO OBS. NXT FCST BY 222000Z